createdAt,value
2017-08-26T00:02:20.262Z,100116.14
2017-08-26T00:05:21.606Z,100116.43
2017-08-26T00:08:22.932Z,100127.02
2017-08-26T00:11:24.285Z,100125.91
2017-08-26T00:14:25.665Z,100126.00
2017-08-26T00:17:27.022Z,100123.05
2017-08-26T00:20:28.349Z,100129.05
2017-08-26T00:23:29.666Z,100132.81
2017-08-26T00:26:30.995Z,100137.62
2017-08-26T00:29:32.790Z,100136.72
2017-08-26T00:32:34.566Z,100136.27
2017-08-26T00:35:36.470Z,100149.19
2017-08-26T00:38:38.263Z,100147.17
2017-08-26T00:41:39.674Z,100134.66
2017-08-26T00:44:41.018Z,100137.59
2017-08-26T00:47:42.358Z,100127.13
2017-08-26T00:50:43.760Z,100120.40
2017-08-26T00:53:45.105Z,100114.53
2017-08-26T00:56:46.638Z,100113.98
2017-08-26T00:59:48.001Z,100114.31
2017-08-26T01:02:49.382Z,100106.20
2017-08-26T01:05:50.723Z,100106.92
2017-08-26T01:08:52.102Z,100096.85
2017-08-26T01:11:53.484Z,100088.81
2017-08-26T01:15:01.785Z,100098.84
2017-08-26T01:18:03.160Z,100099.34
2017-08-26T01:21:04.574Z,100100.20
2017-08-26T01:24:05.926Z,100096.77
2017-08-26T01:27:07.266Z,100094.63
2017-08-26T01:30:08.613Z,100097.25
2017-08-26T01:33:09.960Z,100092.45
2017-08-26T01:36:11.317Z,100084.47
2017-08-26T01:39:12.639Z,100082.82
2017-08-26T01:42:13.979Z,100080.65
2017-08-26T01:45:15.311Z,100076.05
2017-08-26T01:48:16.633Z,100083.00
2017-08-26T01:51:17.987Z,100086.09
2017-08-26T01:54:19.329Z,100079.70
2017-08-26T01:57:20.678Z,100075.58
2017-08-26T02:00:22.017Z,100077.19
2017-08-26T02:03:23.421Z,100063.04
2017-08-26T02:06:24.717Z,100064.47
2017-08-26T02:09:26.046Z,100076.45
2017-08-26T02:12:27.682Z,100072.71
2017-08-26T02:15:28.990Z,100081.30
2017-08-26T02:18:30.345Z,100073.98
2017-08-26T02:21:31.653Z,100084.34
2017-08-26T02:24:32.991Z,100078.44
2017-08-26T02:27:34.323Z,100082.61
2017-08-26T02:30:35.664Z,100082.26
2017-08-26T02:33:37.006Z,100088.86
2017-08-26T02:36:38.350Z,100096.14
2017-08-26T02:39:39.646Z,100082.44
2017-08-26T02:42:40.994Z,100085.86
2017-08-26T02:45:42.457Z,100084.34
2017-08-26T02:48:43.798Z,100087.47
2017-08-26T02:51:45.173Z,100089.38
2017-08-26T02:54:46.565Z,100081.91
2017-08-26T02:57:47.928Z,100085.70
2017-08-26T03:00:49.259Z,100090.63
2017-08-26T03:03:50.627Z,100094.45
2017-08-26T03:06:51.935Z,100099.97
2017-08-26T03:09:53.626Z,100097.36
2017-08-26T03:12:54.975Z,100088.98
2017-08-26T03:15:56.306Z,100092.11
2017-08-26T03:18:57.747Z,100095.43
2017-08-26T03:21:59.079Z,100090.89
2017-08-26T03:25:00.412Z,100087.25
2017-08-26T03:28:01.737Z,100087.73
2017-08-26T03:31:03.091Z,100083.88
2017-08-26T03:34:04.419Z,100073.02
2017-08-26T03:37:05.790Z,100071.77
2017-08-26T03:40:07.118Z,100066.98
2017-08-26T03:43:08.459Z,100058.91
2017-08-26T03:46:09.968Z,100057.53
2017-08-26T03:49:11.271Z,100056.84
2017-08-26T03:52:12.656Z,100054.13
2017-08-26T03:55:14.035Z,100050.24
2017-08-26T03:58:15.389Z,100050.88
2017-08-26T04:01:16.696Z,100049.06
2017-08-26T04:04:18.049Z,100050.30
2017-08-26T04:07:19.482Z,100039.84
2017-08-26T04:10:20.806Z,100033.89
2017-08-26T04:13:22.293Z,100040.25
2017-08-26T04:16:23.623Z,100042.92
2017-08-26T04:19:24.977Z,100052.74
2017-08-26T04:22:26.329Z,100059.11
2017-08-26T04:25:27.836Z,100053.21
2017-08-26T04:28:29.155Z,100057.51
2017-08-26T04:31:30.534Z,100061.94
2017-08-26T04:34:31.876Z,100057.42
2017-08-26T04:37:33.169Z,100053.52
2017-08-26T04:40:34.524Z,100054.13
2017-08-26T04:43:35.823Z,100061.45
2017-08-26T04:46:37.147Z,100056.07
2017-08-26T04:49:38.458Z,100062.97
2017-08-26T04:52:39.811Z,100068.77
2017-08-26T04:55:41.147Z,100065.47
2017-08-26T04:58:42.466Z,100059.72
2017-08-26T05:01:43.821Z,100060.99
2017-08-26T05:04:45.130Z,100061.86
2017-08-26T05:07:46.485Z,100063.67
2017-08-26T05:10:48.050Z,100061.45
2017-08-26T05:13:49.351Z,100070.14
2017-08-26T05:16:50.685Z,100063.31
2017-08-26T05:19:52.027Z,100063.70
2017-08-26T05:22:53.506Z,100063.95
2017-08-26T05:25:54.799Z,100060.78
2017-08-26T05:28:56.155Z,100060.98
2017-08-26T05:31:57.500Z,100054.48
2017-08-26T05:34:58.878Z,100054.67
2017-08-26T05:38:00.209Z,100061.22
2017-08-26T05:41:01.546Z,100053.69
2017-08-26T05:44:02.888Z,100052.70
2017-08-26T05:47:04.202Z,100063.38
2017-08-26T05:50:05.542Z,100055.59
2017-08-26T05:53:06.867Z,100056.20
2017-08-26T05:56:08.186Z,100052.58
2017-08-26T05:59:09.654Z,100050.91
2017-08-26T06:02:11.002Z,100050.77
2017-08-26T06:05:12.337Z,100050.01
2017-08-26T06:08:13.639Z,100047.20
2017-08-26T06:11:15.002Z,100050.70
2017-08-26T06:14:16.352Z,100049.69
2017-08-26T06:17:17.728Z,100048.72
2017-08-26T06:20:19.015Z,100048.42
2017-08-26T06:23:20.388Z,100047.22
2017-08-26T06:26:21.746Z,100045.91
2017-08-26T06:29:23.048Z,100044.15
2017-08-26T06:32:24.391Z,100044.50
2017-08-26T06:35:25.703Z,100050.72
2017-08-26T06:38:27.055Z,100046.59
2017-08-26T06:41:28.373Z,100046.94
2017-08-26T06:44:29.742Z,100043.64
2017-08-26T06:47:31.101Z,100049.12
2017-08-26T06:50:32.433Z,100046.91
2017-08-26T06:53:33.969Z,100041.41
2017-08-26T06:56:35.287Z,100030.59
2017-08-26T06:59:36.651Z,100030.89
2017-08-26T07:02:38.000Z,100028.49
2017-08-26T07:05:39.354Z,100023.24
2017-08-26T07:08:40.646Z,100023.15
2017-08-26T07:11:42.020Z,100016.34
2017-08-26T07:14:43.483Z,100020.91
2017-08-26T07:17:44.791Z,100018.22
2017-08-26T07:20:46.146Z,100016.67
2017-08-26T07:23:47.509Z,100018.48
2017-08-26T07:26:48.887Z,100025.27
2017-08-26T07:29:50.213Z,100026.16
2017-08-26T07:32:51.539Z,100032.95
2017-08-26T07:35:52.864Z,100032.45
2017-08-26T07:38:54.229Z,100040.39
2017-08-26T07:41:55.542Z,100035.73
2017-08-26T07:44:56.904Z,100038.94
2017-08-26T07:47:58.232Z,100043.86
2017-08-26T07:50:59.565Z,100046.34
2017-08-26T07:54:00.942Z,100048.92
2017-08-26T07:57:02.306Z,100045.74
2017-08-26T08:00:03.627Z,100042.70
2017-08-26T08:03:04.970Z,100036.10
2017-08-26T08:06:06.302Z,100040.56
2017-08-26T08:09:07.677Z,100044.05
2017-08-26T08:12:09.030Z,100045.69
2017-08-26T08:15:10.444Z,100045.22
2017-08-26T08:18:11.764Z,100052.73
2017-08-26T08:21:13.143Z,100048.86
2017-08-26T08:24:14.465Z,100050.76
2017-08-26T08:27:15.788Z,100049.00
2017-08-26T08:30:17.079Z,100047.39
2017-08-26T08:33:18.418Z,100061.88
2017-08-26T08:36:19.885Z,100053.72
2017-08-26T08:39:21.175Z,100058.55
2017-08-26T08:42:22.541Z,100064.55
2017-08-26T08:45:23.825Z,100061.71
2017-08-26T08:48:25.186Z,100054.50
2017-08-26T08:51:26.530Z,100060.33
2017-08-26T08:54:27.859Z,100062.11
2017-08-26T08:57:29.206Z,100064.90
2017-08-26T09:00:30.544Z,100058.89
2017-08-26T09:03:31.854Z,100059.52
2017-08-26T09:06:33.190Z,100063.63
2017-08-26T09:09:34.522Z,100053.39
2017-08-26T09:12:35.850Z,100061.98
2017-08-26T09:15:37.172Z,100059.28
2017-08-26T09:18:38.510Z,100058.08
2017-08-26T09:21:39.873Z,100054.73
2017-08-26T09:24:41.222Z,100055.42
2017-08-26T09:27:42.953Z,100060.20
2017-08-26T09:30:44.257Z,100064.41
2017-08-26T09:33:45.627Z,100059.17
2017-08-26T09:36:46.971Z,100054.25
2017-08-26T09:39:48.286Z,100062.37
2017-08-26T09:42:49.602Z,100056.83
2017-08-26T09:45:50.938Z,100053.39
2017-08-26T09:48:52.257Z,100064.53
2017-08-26T09:51:53.610Z,100067.03
2017-08-26T09:54:54.929Z,100066.26
2017-08-26T09:57:56.278Z,100065.45
2017-08-26T10:00:57.755Z,100067.45
2017-08-26T10:03:59.066Z,100065.76
2017-08-26T10:07:00.435Z,100073.03
2017-08-26T10:10:01.731Z,100072.54
2017-08-26T10:13:03.059Z,100068.82
2017-08-26T10:16:04.383Z,100075.09
2017-08-26T10:19:05.734Z,100069.83
2017-08-26T10:22:07.070Z,100076.08
2017-08-26T10:25:08.459Z,100067.73
2017-08-26T10:28:09.755Z,100064.91
2017-08-26T10:31:11.149Z,100062.69
2017-08-26T10:34:12.485Z,100064.59
2017-08-26T10:37:13.842Z,100062.74
2017-08-26T10:40:15.179Z,100067.88
2017-08-26T10:43:16.562Z,100067.25
2017-08-26T10:46:17.917Z,100065.05
2017-08-26T10:49:19.284Z,100063.38
2017-08-26T10:52:20.610Z,100067.59
2017-08-26T10:55:21.933Z,100056.33
2017-08-26T10:58:23.393Z,100062.46
2017-08-26T11:01:24.686Z,100061.22
2017-08-26T11:04:26.052Z,100057.80
2017-08-26T11:07:27.390Z,100054.25
2017-08-26T11:10:28.711Z,100052.84
2017-08-26T11:13:30.032Z,100050.69
2017-08-26T11:16:31.370Z,100047.16
2017-08-26T11:19:32.681Z,100048.62
2017-08-26T11:22:34.066Z,100047.14
2017-08-26T11:25:35.534Z,100046.25
2017-08-26T11:28:36.873Z,100046.14
2017-08-26T11:31:38.234Z,100045.42
2017-08-26T11:34:39.574Z,100047.19
2017-08-26T11:37:40.955Z,100054.42
2017-08-26T11:40:42.279Z,100047.88
2017-08-26T11:43:43.618Z,100046.57
2017-08-26T11:46:44.919Z,100039.95
2017-08-26T11:49:46.241Z,100044.47
2017-08-26T11:52:47.572Z,100044.69
2017-08-26T11:55:48.895Z,100037.36
2017-08-26T11:58:50.190Z,100038.48
2017-08-26T12:01:51.527Z,100033.81
2017-08-26T12:04:52.987Z,100037.31
2017-08-26T12:07:54.315Z,100031.86
2017-08-26T12:10:55.647Z,100033.27
2017-08-26T12:13:56.970Z,100032.47
2017-08-26T12:16:58.341Z,100031.39
2017-08-26T12:19:59.665Z,100030.08
2017-08-26T12:23:01.037Z,100040.48
2017-08-26T12:26:02.496Z,100034.77
2017-08-26T12:29:03.821Z,100042.92
2017-08-26T12:32:05.177Z,100034.77
2017-08-26T12:35:06.467Z,100031.09
2017-08-26T12:38:07.836Z,100041.08
2017-08-26T12:41:09.158Z,100040.19
2017-08-26T12:44:10.495Z,100048.94
2017-08-26T12:47:11.928Z,100050.20
2017-08-26T12:50:13.272Z,100049.31
2017-08-26T12:53:14.599Z,100053.09
2017-08-26T12:56:15.920Z,100045.76
2017-08-26T12:59:17.257Z,100046.41
2017-08-26T13:02:18.562Z,100044.09
2017-08-26T13:05:19.896Z,100049.69
2017-08-26T13:08:21.206Z,100050.78
2017-08-26T13:11:22.556Z,100050.64
2017-08-26T13:14:23.875Z,100050.58
2017-08-26T13:17:25.230Z,100051.39
2017-08-26T13:20:26.906Z,100052.55
2017-08-26T13:23:28.231Z,100045.84
2017-08-26T13:26:29.588Z,100051.94
2017-08-26T13:29:30.910Z,100052.20
2017-08-26T13:32:32.264Z,100047.88
2017-08-26T13:35:33.560Z,100059.16
2017-08-26T13:38:34.929Z,100056.21
2017-08-26T13:41:36.239Z,100060.59
2017-08-26T13:44:37.569Z,100052.73
2017-08-26T13:47:39.255Z,100056.95
2017-08-26T13:50:40.554Z,100054.55
2017-08-26T13:53:41.925Z,100061.32
2017-08-26T13:56:43.242Z,100053.67
2017-08-26T13:59:44.588Z,100059.20
2017-08-26T14:02:45.891Z,100057.47
2017-08-26T14:05:47.247Z,100055.03
2017-08-26T14:08:48.576Z,100052.73
2017-08-26T14:11:49.934Z,100048.70
2017-08-26T14:14:51.252Z,100051.88
2017-08-26T14:17:52.579Z,100060.38
2017-08-26T14:20:53.919Z,100051.69
2017-08-26T14:23:55.280Z,100056.00
2017-08-26T14:26:56.570Z,100052.25
2017-08-26T14:29:57.917Z,100059.09
2017-08-26T14:32:59.218Z,100053.86
2017-08-26T14:36:00.576Z,100057.34
2017-08-26T14:39:01.926Z,100068.15
2017-08-26T14:42:03.292Z,100069.39
2017-08-26T14:45:04.621Z,100058.92
2017-08-26T14:48:05.963Z,100063.92
2017-08-26T14:51:07.275Z,100062.36
2017-08-26T14:54:08.635Z,100053.21
2017-08-26T14:57:09.973Z,100046.24
2017-08-26T15:00:11.320Z,100044.90
2017-08-26T15:03:12.620Z,100050.30
2017-08-26T15:06:13.947Z,100047.83
2017-08-26T15:09:15.303Z,100050.54
2017-08-26T15:12:16.627Z,100037.73
2017-08-26T15:15:18.118Z,100047.19
2017-08-26T15:18:19.450Z,100033.46
2017-08-26T15:21:20.807Z,100037.23
2017-08-26T15:24:22.184Z,100038.75
2017-08-26T15:27:23.661Z,100042.98
2017-08-26T15:30:24.964Z,100036.69
2017-08-26T15:33:26.289Z,100040.53
2017-08-26T15:36:27.594Z,100040.83
2017-08-26T15:39:29.071Z,100039.70
2017-08-26T15:42:30.372Z,100046.81
2017-08-26T15:45:31.717Z,100038.23
2017-08-26T15:48:33.048Z,100035.39
2017-08-26T15:51:34.414Z,100037.50
2017-08-26T15:54:35.723Z,100036.64
2017-08-26T15:57:37.025Z,100034.47
2017-08-26T16:00:38.342Z,100036.14
2017-08-26T16:03:39.657Z,100029.90
2017-08-26T16:06:40.941Z,100025.77
2017-08-26T16:09:42.252Z,100029.34
2017-08-26T16:12:43.578Z,100033.20
2017-08-26T16:15:44.945Z,100025.27
2017-08-26T16:18:46.391Z,100027.96
2017-08-26T16:21:47.703Z,100029.17
2017-08-26T16:24:49.199Z,100029.86
2017-08-26T16:27:50.496Z,100037.47
2017-08-26T16:30:51.854Z,100041.97
2017-08-26T16:33:53.154Z,100034.86
2017-08-26T16:36:54.524Z,100029.91
2017-08-26T16:39:55.881Z,100034.55
2017-08-26T16:42:57.215Z,100033.49
2017-08-26T16:45:58.553Z,100041.00
2017-08-26T16:48:59.919Z,100046.16
2017-08-26T16:52:01.255Z,100041.53
2017-08-26T16:55:02.599Z,100047.31
2017-08-26T16:58:04.153Z,100054.73
2017-08-26T17:01:05.464Z,100047.29
2017-08-26T17:04:06.777Z,100056.48
2017-08-26T17:07:08.102Z,100055.03
2017-08-26T17:10:09.450Z,100051.06
2017-08-26T17:13:10.761Z,100057.33
2017-08-26T17:16:12.137Z,100055.01
2017-08-26T17:19:13.425Z,100053.59
2017-08-26T17:22:14.757Z,100062.03
2017-08-26T17:25:16.103Z,100054.58
2017-08-26T17:28:17.446Z,100057.17
2017-08-26T17:31:18.749Z,100058.13
2017-08-26T17:34:20.111Z,100058.15
2017-08-26T17:37:21.563Z,100061.47
2017-08-26T17:40:22.905Z,100062.88
2017-08-26T17:43:24.266Z,100063.98
2017-08-26T17:46:25.573Z,100067.68
2017-08-26T17:49:26.942Z,100067.98
2017-08-26T17:52:28.276Z,100064.10
2017-08-26T17:55:29.606Z,100062.81
2017-08-26T17:58:30.929Z,100073.12
2017-08-26T18:01:32.258Z,100071.37
2017-08-26T18:04:33.577Z,100070.92
2017-08-26T18:07:34.905Z,100079.98
2017-08-26T18:10:36.234Z,100075.53
2017-08-26T18:13:37.570Z,100074.55
2017-08-26T18:16:38.905Z,100077.09
2017-08-26T18:19:40.402Z,100087.28
2017-08-26T18:22:41.740Z,100091.91
2017-08-26T18:25:43.097Z,100102.27
2017-08-26T18:28:44.421Z,100096.37
2017-08-26T18:31:45.774Z,100103.14
2017-08-26T18:34:47.100Z,100107.67
2017-08-26T18:37:48.458Z,100109.66
2017-08-26T18:40:49.755Z,100110.68
2017-08-26T18:43:51.116Z,100108.80
2017-08-26T18:46:52.420Z,100111.30
2017-08-26T18:49:53.770Z,100117.45
2017-08-26T18:52:55.166Z,100125.08
2017-08-26T18:55:56.541Z,100123.23
2017-08-26T18:58:57.856Z,100120.87
2017-08-26T19:01:59.188Z,100124.73
2017-08-26T19:05:00.519Z,100125.67
2017-08-26T19:08:01.845Z,100125.29
2017-08-26T19:11:03.178Z,100120.39
2017-08-26T19:14:04.743Z,100131.11
2017-08-26T19:17:06.081Z,100132.11
2017-08-26T19:20:07.444Z,100129.66
2017-08-26T19:23:08.875Z,100132.72
2017-08-26T19:26:10.233Z,100133.02
2017-08-26T19:29:11.567Z,100129.56
2017-08-26T19:32:12.901Z,100141.20
2017-08-26T19:35:14.213Z,100141.59
2017-08-26T19:38:15.541Z,100137.28
2017-08-26T19:41:16.876Z,100140.97
2017-08-26T19:44:18.236Z,100140.79
2017-08-26T19:47:19.592Z,100145.27
2017-08-26T19:50:20.940Z,100148.27
2017-08-26T19:53:22.291Z,100148.50
2017-08-26T19:56:23.647Z,100147.59
2017-08-26T19:59:25.349Z,100147.84
2017-08-26T20:02:26.690Z,100147.20
2017-08-26T20:05:28.013Z,100136.09
2017-08-26T20:08:29.316Z,100140.90
2017-08-26T20:11:30.677Z,100145.42
2017-08-26T20:14:31.974Z,100150.98
2017-08-26T20:17:33.314Z,100159.98
2017-08-26T20:20:34.633Z,100161.42
2017-08-26T20:23:35.993Z,100152.03
2017-08-26T20:26:37.298Z,100149.38
2017-08-26T20:29:38.677Z,100158.08
2017-08-26T20:32:40.026Z,100152.80
2017-08-26T20:35:41.401Z,100154.50
2017-08-26T20:38:42.875Z,100150.22
2017-08-26T20:41:44.182Z,100161.91
2017-08-26T20:44:45.526Z,100154.70
2017-08-26T20:47:46.884Z,100155.13
2017-08-26T20:50:48.269Z,100152.97
2017-08-26T20:53:49.610Z,100157.08
2017-08-26T20:56:50.994Z,100157.52
2017-08-26T20:59:52.339Z,100162.16
2017-08-26T21:02:53.712Z,100169.78
2017-08-26T21:05:55.094Z,100173.73
2017-08-26T21:08:56.449Z,100162.73
2017-08-26T21:11:57.745Z,100161.33
2017-08-26T21:14:59.090Z,100163.09
2017-08-26T21:18:00.407Z,100160.56
2017-08-26T21:21:01.747Z,100167.23
2017-08-26T21:24:03.269Z,100171.37
2017-08-26T21:27:04.610Z,100166.16
2017-08-26T21:30:05.996Z,100169.55
2017-08-26T21:33:07.312Z,100167.39
2017-08-26T21:36:08.663Z,100163.53
2017-08-26T21:39:10.006Z,100166.70
2017-08-26T21:42:11.369Z,100163.36
2017-08-26T21:45:12.658Z,100165.84
2017-08-26T21:48:13.985Z,100162.84
2017-08-26T21:51:15.450Z,100161.51
2017-08-26T21:54:16.849Z,100161.89
2017-08-26T21:57:18.203Z,100169.06
2017-08-26T22:00:19.517Z,100166.33
2017-08-26T22:03:20.984Z,100170.09
2017-08-26T22:06:22.331Z,100165.41
2017-08-26T22:09:23.681Z,100169.80
2017-08-26T22:12:25.005Z,100176.75
2017-08-26T22:15:26.381Z,100168.49
2017-08-26T22:18:27.921Z,100171.50
2017-08-26T22:21:29.229Z,100186.30
2017-08-26T22:24:30.618Z,100182.47
2017-08-26T22:27:31.933Z,100183.91
2017-08-26T22:30:33.295Z,100179.25
2017-08-26T22:33:34.611Z,100188.84
2017-08-26T22:36:35.965Z,100180.25
2017-08-26T22:39:37.299Z,100179.44
2017-08-26T22:42:38.639Z,100178.27
2017-08-26T22:45:39.979Z,100179.15
2017-08-26T22:48:41.321Z,100179.05
2017-08-26T22:51:42.879Z,100179.37
2017-08-26T22:54:44.197Z,100180.66
2017-08-26T22:57:45.522Z,100183.13
2017-08-26T23:00:46.875Z,100173.35
2017-08-26T23:03:49.094Z,100175.70
2017-08-26T23:06:50.430Z,100183.13
2017-08-26T23:09:51.753Z,100178.42
2017-08-26T23:12:53.358Z,100169.46
2017-08-26T23:15:54.688Z,100177.88
2017-08-26T23:18:56.043Z,100179.44
2017-08-26T23:21:57.383Z,100181.08
2017-08-26T23:24:58.764Z,100176.67
2017-08-26T23:28:00.111Z,100181.97
2017-08-26T23:31:01.455Z,100182.00
2017-08-26T23:34:02.828Z,100176.16
2017-08-26T23:37:04.162Z,100180.98
2017-08-26T23:40:05.500Z,100173.20
2017-08-26T23:43:06.814Z,100175.27
2017-08-26T23:46:08.183Z,100174.45
2017-08-26T23:49:09.563Z,100170.70
2017-08-26T23:52:10.909Z,100177.38
2017-08-26T23:55:12.229Z,100171.95
2017-08-26T23:58:13.591Z,100174.69
